Time;durP1;ratioP1;P1;durP2;ratioP2;P2;SDS_P1;SDS_P2;PMS_P1;PMS_P2;Temp;Humidity;BMP_temperature;BMP_pressure;BME280_temperature;BME280_humidity;BME280_pressure;Samples;Min_cycle;Max_cycle;Signal;HPM_P1;HPM_P2
2022/07/24 00:01:03;;;;;;;12.50;11.40;;;;;;;;;;5090391;28;24436;-46
2022/07/24 00:03:28;;;;;;;11.70;10.70;;;;;;;;;;5090010;28;24887;-46
2022/07/24 00:05:53;;;;;;;11.80;10.80;;;;;;;;;;5101977;27;24429;-46
2022/07/24 00:08:18;;;;;;;12.07;11.07;;;;;;;;;;5094623;28;24444;-47
2022/07/24 00:10:43;;;;;;;11.20;10.20;;;;;;;;;;5098628;28;24440;-46
2022/07/24 00:13:09;;;;;;;11.00;10.10;;;;;;;;;;5091590;27;24626;-46
2022/07/24 00:15:34;;;;;;;11.00;9.90;;;;;;;;;;5090041;28;24425;-46
2022/07/24 00:17:59;;;;;;;10.17;9.37;;;;;;;;;;5090912;28;24445;-47
2022/07/24 00:20:24;;;;;;;10.97;10.07;;;;;;;;;;5099919;28;24425;-45
2022/07/24 00:22:49;;;;;;;11.65;10.43;;;;;;;;;;5093005;28;24517;-45
2022/07/24 00:25:14;;;;;;;11.57;10.68;;;;;;;;;;5103793;28;24984;-46
2022/07/24 00:27:40;;;;;;;11.97;10.97;;;;;;;;;;5094093;28;24453;-46
2022/07/24 00:30:05;;;;;;;11.93;10.95;;;;;;;;;;5084732;28;24499;-45
2022/07/24 00:32:30;;;;;;;11.87;10.77;;;;;;;;;;5099850;28;24441;-46
2022/07/24 00:34:56;;;;;;;10.67;9.67;;;;;;;;;;5091140;28;24509;-45
2022/07/24 00:37:21;;;;;;;10.90;10.00;;;;;;;;;;5093548;28;25019;-46
2022/07/24 00:39:47;;;;;;;10.60;9.70;;;;;;;;;;5089531;28;24422;-46
2022/07/24 00:42:12;;;;;;;10.65;9.75;;;;;;;;;;5092957;28;24442;-47
2022/07/24 00:44:37;;;;;;;10.43;9.63;;;;;;;;;;5096498;28;24461;-46
2022/07/24 00:47:02;;;;;;;10.70;9.70;;;;;;;;;;5089770;28;24437;-46
2022/07/24 00:49:27;;;;;;;10.53;9.57;;;;;;;;;;5101796;27;25310;-46
2022/07/24 00:51:53;;;;;;;10.65;9.75;;;;;;;;;;5097336;28;24515;-46
2022/07/24 00:54:19;;;;;;;9.80;8.90;;;;;;;;;;5095418;28;24418;-46
2022/07/24 00:56:46;;;;;;;9.13;8.43;;;;;;;;;;5103700;28;24567;-46
2022/07/24 00:59:11;;;;;;;9.35;8.45;;;;;;;;;;5097706;28;24559;-46
2022/07/24 01:01:36;;;;;;;9.20;8.50;;;;;;;;;;5094564;27;24520;-45
2022/07/24 01:04:02;;;;;;;9.52;8.73;;;;;;;;;;5091057;28;24977;-45
2022/07/24 01:06:27;;;;;;;8.93;8.20;;;;;;;;;;5099903;27;24445;-45
2022/07/24 01:08:52;;;;;;;9.00;8.10;;;;;;;;;;5095439;28;24432;-45
2022/07/24 01:11:18;;;;;;;8.53;7.83;;;;;;;;;;5092921;28;24814;-45
2022/07/24 01:13:44;;;;;;;8.68;7.97;;;;;;;;;;5104378;28;24428;-45
2022/07/24 01:16:09;;;;;;;9.13;8.32;;;;;;;;;;5099971;28;24421;-45
2022/07/24 01:18:35;;;;;;;9.57;8.77;;;;;;;;;;5091319;27;25015;-45
2022/07/24 01:21:00;;;;;;;8.50;7.80;;;;;;;;;;5100852;28;24414;-45
2022/07/24 01:23:25;;;;;;;8.60;8.00;;;;;;;;;;5103837;28;24835;-45
2022/07/24 01:25:51;;;;;;;8.37;7.60;;;;;;;;;;5092555;28;24511;-45
2022/07/24 01:28:16;;;;;;;8.80;8.00;;;;;;;;;;5087770;28;24426;-46
2022/07/24 01:30:41;;;;;;;8.67;7.97;;;;;;;;;;5098849;28;24978;-46
2022/07/24 01:33:06;;;;;;;8.47;7.77;;;;;;;;;;5104230;28;24424;-46
2022/07/24 01:35:32;;;;;;;9.00;8.20;;;;;;;;;;5094299;27;24519;-45
2022/07/24 01:37:58;;;;;;;8.80;8.10;;;;;;;;;;5095313;27;24486;-46
2022/07/24 01:40:23;;;;;;;8.20;7.60;;;;;;;;;;5102683;27;24483;-46
2022/07/24 01:42:48;;;;;;;8.83;8.13;;;;;;;;;;5088925;27;24433;-46
2022/07/24 01:45:14;;;;;;;9.30;8.30;;;;;;;;;;5105717;28;24430;-46
2022/07/24 01:47:39;;;;;;;8.40;7.70;;;;;;;;;;5087292;28;24846;-46
2022/07/24 01:50:05;;;;;;;8.10;7.50;;;;;;;;;;5095128;27;24430;-46
2022/07/24 01:52:30;;;;;;;9.00;8.20;;;;;;;;;;5100567;28;24505;-46
2022/07/24 01:54:55;;;;;;;7.80;7.10;;;;;;;;;;5104796;28;24435;-46
2022/07/24 01:57:20;;;;;;;8.70;8.00;;;;;;;;;;5099785;28;24425;-46
2022/07/24 01:59:46;;;;;;;8.77;7.97;;;;;;;;;;5104465;28;24421;-46
2022/07/24 02:02:11;;;;;;;9.20;8.50;;;;;;;;;;5096245;28;24546;-46
2022/07/24 02:04:37;;;;;;;8.83;8.03;;;;;;;;;;5088966;28;24554;-46
2022/07/24 02:07:02;;;;;;;9.20;8.30;;;;;;;;;;5088071;28;24445;-47
2022/07/24 02:09:27;;;;;;;10.83;9.83;;;;;;;;;;5093413;28;24422;-46
2022/07/24 02:11:52;;;;;;;13.30;12.20;;;;;;;;;;5088621;28;24433;-45
2022/07/24 02:14:17;;;;;;;13.50;12.10;;;;;;;;;;5098545;28;24591;-45
2022/07/24 02:16:43;;;;;;;14.90;13.50;;;;;;;;;;5102832;28;24508;-46
2022/07/24 02:19:08;;;;;;;15.80;14.50;;;;;;;;;;5102567;28;24430;-46
2022/07/24 02:21:33;;;;;;;15.83;14.33;;;;;;;;;;5101040;28;24513;-46
2022/07/24 02:23:58;;;;;;;15.52;14.23;;;;;;;;;;5096434;28;24474;-45
2022/07/24 02:26:23;;;;;;;15.70;14.47;;;;;;;;;;5097533;28;24529;-46
2022/07/24 02:28:48;;;;;;;15.30;14.20;;;;;;;;;;5093559;27;24801;-45
2022/07/24 02:31:14;;;;;;;15.90;14.70;;;;;;;;;;5096454;28;24486;-45
2022/07/24 02:33:39;;;;;;;15.20;14.10;;;;;;;;;;5091677;28;24512;-46
2022/07/24 02:36:04;;;;;;;14.33;13.33;;;;;;;;;;5093406;28;24433;-46
2022/07/24 02:38:30;;;;;;;14.10;13.10;;;;;;;;;;5099920;28;24445;-45
2022/07/24 02:40:55;;;;;;;14.33;13.33;;;;;;;;;;5100458;28;24428;-45
2022/07/24 02:43:20;;;;;;;15.00;13.90;;;;;;;;;;5097727;28;24426;-46
2022/07/24 02:45:45;;;;;;;14.80;13.80;;;;;;;;;;5100768;27;24461;-46
2022/07/24 02:48:10;;;;;;;13.70;12.80;;;;;;;;;;5088452;28;24444;-46
2022/07/24 02:50:36;;;;;;;13.20;12.30;;;;;;;;;;5094536;27;24523;-46
2022/07/24 02:53:01;;;;;;;14.80;13.70;;;;;;;;;;5107061;28;25036;-46
2022/07/24 02:55:28;;;;;;;13.60;12.60;;;;;;;;;;5102959;28;24417;-46
2022/07/24 02:57:53;;;;;;;13.20;12.30;;;;;;;;;;5101756;28;24429;-46
2022/07/24 03:00:18;;;;;;;13.27;12.27;;;;;;;;;;5087104;27;24502;-46
2022/07/24 03:02:44;;;;;;;12.00;11.20;;;;;;;;;;5093791;28;25014;-46
2022/07/24 03:05:09;;;;;;;11.47;10.57;;;;;;;;;;5100478;28;24437;-46
2022/07/24 03:07:36;;;;;;;11.85;10.95;;;;;;;;;;5092997;28;24521;-46
2022/07/24 03:10:01;;;;;;;11.30;10.50;;;;;;;;;;5088075;28;24499;-46
2022/07/24 03:12:27;;;;;;;10.30;9.60;;;;;;;;;;5088655;28;24956;-45
2022/07/24 03:14:52;;;;;;;11.32;10.50;;;;;;;;;;5093930;28;24952;-46
2022/07/24 03:17:17;;;;;;;11.73;10.73;;;;;;;;;;5101230;28;24525;-45
2022/07/24 03:19:42;;;;;;;11.20;10.40;;;;;;;;;;5102439;27;24482;-47
2022/07/24 03:22:07;;;;;;;12.45;11.50;;;;;;;;;;5089128;27;24464;-47
2022/07/24 03:24:32;;;;;;;12.00;11.10;;;;;;;;;;5096433;28;24437;-44
2022/07/24 03:26:58;;;;;;;11.73;10.83;;;;;;;;;;5088646;27;24452;-46
2022/07/24 03:29:23;;;;;;;12.37;11.47;;;;;;;;;;5095780;28;24536;-46
2022/07/24 03:31:48;;;;;;;11.63;10.82;;;;;;;;;;5087047;28;24429;-45
2022/07/24 03:34:13;;;;;;;11.95;11.05;;;;;;;;;;5099416;27;25019;-46
2022/07/24 03:36:38;;;;;;;12.23;11.43;;;;;;;;;;5093084;28;24430;-45
2022/07/24 03:39:04;;;;;;;12.97;12.07;;;;;;;;;;5093751;27;25038;-45
2022/07/24 03:41:29;;;;;;;13.02;12.05;;;;;;;;;;5101759;28;24474;-45
2022/07/24 03:43:54;;;;;;;14.35;13.30;;;;;;;;;;5102158;27;25002;-46
2022/07/24 03:46:19;;;;;;;14.13;13.07;;;;;;;;;;5101000;28;24429;-46
2022/07/24 03:48:44;;;;;;;14.10;13.00;;;;;;;;;;5101655;28;24420;-46
2022/07/24 03:51:10;;;;;;;13.48;12.48;;;;;;;;;;5095886;28;24428;-46
2022/07/24 03:53:35;;;;;;;12.57;11.67;;;;;;;;;;5090276;28;24457;-46
2022/07/24 03:56:03;;;;;;;11.43;10.63;;;;;;;;;;5095363;27;24822;-46
2022/07/24 03:58:28;;;;;;;12.00;11.10;;;;;;;;;;5100041;28;24500;-47
2022/07/24 04:00:53;;;;;;;11.15;10.35;;;;;;;;;;5100878;28;24426;-47
2022/07/24 04:03:19;;;;;;;10.70;9.90;;;;;;;;;;5103574;27;24468;-47
2022/07/24 04:05:44;;;;;;;11.60;10.77;;;;;;;;;;5099392;28;25061;-47
2022/07/24 04:08:09;;;;;;;12.82;11.82;;;;;;;;;;5091978;28;24429;-47
2022/07/24 04:10:34;;;;;;;12.02;11.13;;;;;;;;;;5096418;27;24513;-47
2022/07/24 04:12:59;;;;;;;11.27;10.48;;;;;;;;;;5102876;28;24976;-45
2022/07/24 04:15:24;;;;;;;10.60;9.80;;;;;;;;;;5090037;28;24422;-44
2022/07/24 04:17:49;;;;;;;10.48;9.68;;;;;;;;;;5095460;28;24465;-45
2022/07/24 04:20:14;;;;;;;9.73;9.02;;;;;;;;;;5101700;28;24824;-46
2022/07/24 04:22:40;;;;;;;10.43;9.63;;;;;;;;;;5103259;28;24416;-45
2022/07/24 04:25:05;;;;;;;10.20;9.50;;;;;;;;;;5100667;28;24429;-45
2022/07/24 04:27:31;;;;;;;14.18;13.07;;;;;;;;;;5097782;28;24854;-46
2022/07/24 04:29:57;;;;;;;10.50;9.80;;;;;;;;;;5099256;28;24815;-46
2022/07/24 04:32:22;;;;;;;12.05;11.05;;;;;;;;;;5098141;28;24476;-45
2022/07/24 04:34:48;;;;;;;13.70;12.80;;;;;;;;;;5097994;28;24422;-45
2022/07/24 04:37:13;;;;;;;12.77;11.88;;;;;;;;;;5086556;28;24445;-45
2022/07/24 04:39:38;;;;;;;11.85;10.95;;;;;;;;;;5102010;28;24525;-45
2022/07/24 04:42:03;;;;;;;11.80;10.80;;;;;;;;;;5086892;28;24425;-45
2022/07/24 04:44:28;;;;;;;12.20;11.20;;;;;;;;;;5086981;28;24986;-45
2022/07/24 04:46:54;;;;;;;11.50;10.60;;;;;;;;;;5103676;28;24421;-45
2022/07/24 04:49:19;;;;;;;11.30;10.30;;;;;;;;;;5098509;28;24792;-46
2022/07/24 04:51:44;;;;;;;10.85;9.95;;;;;;;;;;5089820;28;25031;-46
2022/07/24 04:54:09;;;;;;;11.70;10.75;;;;;;;;;;5094310;28;24453;-45
2022/07/24 04:56:34;;;;;;;11.38;10.48;;;;;;;;;;5101232;28;24796;-46
2022/07/24 04:59:01;;;;;;;10.40;9.50;;;;;;;;;;5096871;28;24437;-45
2022/07/24 05:01:26;;;;;;;9.80;8.90;;;;;;;;;;5101327;28;24425;-45
2022/07/24 05:03:51;;;;;;;10.93;10.02;;;;;;;;;;5091705;28;24785;-45
2022/07/24 05:06:17;;;;;;;11.63;10.65;;;;;;;;;;5092021;28;24476;-46
2022/07/24 05:08:42;;;;;;;11.20;10.30;;;;;;;;;;5097412;28;24436;-46
2022/07/24 05:11:07;;;;;;;9.80;9.10;;;;;;;;;;5099291;28;24425;-45
2022/07/24 05:13:32;;;;;;;10.17;9.37;;;;;;;;;;5086415;28;24453;-47
2022/07/24 05:15:57;;;;;;;10.20;9.50;;;;;;;;;;5087342;28;24418;-45
2022/07/24 05:18:22;;;;;;;9.10;8.30;;;;;;;;;;5091888;28;24975;-46
2022/07/24 05:20:48;;;;;;;9.15;8.45;;;;;;;;;;5088599;28;24503;-46
2022/07/24 05:23:13;;;;;;;9.13;8.52;;;;;;;;;;5094054;28;24971;-45
2022/07/24 05:25:38;;;;;;;10.70;9.60;;;;;;;;;;5103368;28;24591;-46
2022/07/24 05:28:03;;;;;;;11.30;10.40;;;;;;;;;;5087660;28;24425;-46
2022/07/24 05:30:28;;;;;;;9.83;9.03;;;;;;;;;;5091618;28;24975;-45
2022/07/24 05:32:53;;;;;;;8.90;8.00;;;;;;;;;;5099253;28;24414;-45
2022/07/24 05:35:19;;;;;;;9.18;8.48;;;;;;;;;;5090050;27;25022;-45
2022/07/24 05:37:44;;;;;;;9.20;8.50;;;;;;;;;;5107962;28;24459;-46
2022/07/24 05:40:09;;;;;;;8.60;7.90;;;;;;;;;;5097174;28;24504;-46
2022/07/24 05:42:34;;;;;;;8.30;7.60;;;;;;;;;;5102380;27;24421;-46
2022/07/24 05:45:00;;;;;;;7.53;7.00;;;;;;;;;;5095854;27;24994;-47
2022/07/24 05:47:25;;;;;;;7.70;7.20;;;;;;;;;;5090428;28;24438;-46
2022/07/24 05:49:50;;;;;;;7.20;6.70;;;;;;;;;;5093990;27;24448;-47
2022/07/24 05:52:15;;;;;;;7.33;6.83;;;;;;;;;;5101067;27;24413;-47
2022/07/24 05:54:40;;;;;;;8.70;8.10;;;;;;;;;;5106256;28;24446;-46
2022/07/24 05:57:05;;;;;;;7.60;7.10;;;;;;;;;;5105147;28;24445;-46
2022/07/24 05:59:31;;;;;;;7.40;6.80;;;;;;;;;;5094785;27;25059;-46
2022/07/24 06:01:56;;;;;;;7.60;7.00;;;;;;;;;;5092510;28;24433;-46
2022/07/24 06:04:21;;;;;;;8.40;7.70;;;;;;;;;;5104585;28;24513;-46
2022/07/24 06:06:46;;;;;;;7.70;7.00;;;;;;;;;;5106398;28;25050;-46
2022/07/24 06:09:12;;;;;;;7.63;7.03;;;;;;;;;;5093544;28;25008;-46
2022/07/24 06:11:37;;;;;;;7.88;7.28;;;;;;;;;;5108016;28;24507;-46
2022/07/24 06:14:03;;;;;;;7.27;6.77;;;;;;;;;;5102633;27;24433;-46
2022/07/24 06:16:28;;;;;;;7.60;6.90;;;;;;;;;;5102643;27;25202;-46
2022/07/24 06:18:53;;;;;;;8.05;7.35;;;;;;;;;;5100146;27;24430;-46
2022/07/24 06:21:18;;;;;;;13.25;8.88;;;;;;;;;;5091993;27;24522;-47
2022/07/24 06:23:43;;;;;;;7.53;6.88;;;;;;;;;;5097244;27;25973;-46
2022/07/24 06:26:08;;;;;;;7.20;6.70;;;;;;;;;;5094595;28;24479;-46
2022/07/24 06:28:33;;;;;;;6.72;6.30;;;;;;;;;;5107871;27;24520;-46
2022/07/24 06:30:59;;;;;;;7.07;6.63;;;;;;;;;;5098499;28;25502;-46
2022/07/24 06:33:24;;;;;;;8.87;8.17;;;;;;;;;;5095664;28;24451;-45
2022/07/24 06:35:50;;;;;;;9.38;8.57;;;;;;;;;;5093033;27;24425;-46
2022/07/24 06:38:16;;;;;;;8.30;7.70;;;;;;;;;;5102095;28;24430;-46
2022/07/24 06:40:42;;;;;;;7.87;7.27;;;;;;;;;;5104664;28;25043;-46
2022/07/24 06:43:07;;;;;;;7.80;7.10;;;;;;;;;;5090991;27;24470;-46
2022/07/24 06:45:32;;;;;;;7.30;6.80;;;;;;;;;;5093671;28;24845;-46
2022/07/24 06:47:58;;;;;;;6.23;5.73;;;;;;;;;;5084548;28;24436;-46
2022/07/24 06:50:24;;;;;;;7.13;6.53;;;;;;;;;;5109428;27;24795;-46
2022/07/24 06:52:49;;;;;;;7.03;6.53;;;;;;;;;;5095478;27;25228;-47
2022/07/24 06:55:14;;;;;;;6.95;6.45;;;;;;;;;;5101899;28;24429;-46
2022/07/24 06:57:39;;;;;;;7.53;6.93;;;;;;;;;;5096259;27;24401;-46
2022/07/24 07:00:06;;;;;;;6.97;6.37;;;;;;;;;;5095294;28;24509;-47
2022/07/24 07:02:32;;;;;;;8.10;7.40;;;;;;;;;;5104255;28;24636;-47
2022/07/24 07:04:57;;;;;;;6.50;6.00;;;;;;;;;;5099917;28;24445;-47
2022/07/24 07:07:24;;;;;;;6.83;6.23;;;;;;;;;;5103743;27;24462;-45
2022/07/24 07:09:49;;;;;;;6.90;6.40;;;;;;;;;;5093186;28;24429;-45
2022/07/24 07:12:14;;;;;;;6.40;5.90;;;;;;;;;;5104996;28;24434;-47
2022/07/24 07:14:39;;;;;;;5.72;5.30;;;;;;;;;;5090707;28;24967;-47
2022/07/24 07:17:04;;;;;;;6.10;5.50;;;;;;;;;;5088439;28;24514;-47
2022/07/24 07:19:29;;;;;;;6.20;5.70;;;;;;;;;;5088711;28;24464;-47
2022/07/24 07:21:55;;;;;;;5.43;5.03;;;;;;;;;;5093402;28;24434;-45
2022/07/24 07:24:20;;;;;;;5.83;5.23;;;;;;;;;;5102663;27;24512;-45
2022/07/24 07:26:45;;;;;;;5.33;4.93;;;;;;;;;;5087981;28;24839;-46
2022/07/24 07:29:10;;;;;;;5.20;4.80;;;;;;;;;;5095506;28;24777;-46
2022/07/24 07:31:35;;;;;;;5.17;4.77;;;;;;;;;;5103987;28;24450;-46
2022/07/24 07:34:00;;;;;;;5.20;4.80;;;;;;;;;;5087864;28;24425;-46
2022/07/24 07:36:26;;;;;;;4.80;4.40;;;;;;;;;;5091410;27;24982;-46
2022/07/24 07:38:51;;;;;;;5.00;4.60;;;;;;;;;;5099194;28;24437;-46
2022/07/24 07:41:19;;;;;;;3.30;3.10;;;;;;;;;;5099993;28;24430;-46
2022/07/24 07:43:44;;;;;;;2.90;2.20;;;;;;;;;;5089552;28;24421;-46
2022/07/24 07:46:09;;;;;;;2.13;2.00;;;;;;;;;;5102493;28;24482;-47
2022/07/24 07:48:34;;;;;;;3.20;2.60;;;;;;;;;;5088769;28;24422;-46
2022/07/24 07:50:59;;;;;;;3.30;3.10;;;;;;;;;;5104322;28;24836;-46
2022/07/24 07:53:24;;;;;;;3.38;3.10;;;;;;;;;;5104567;28;25173;-46
2022/07/24 07:55:51;;;;;;;3.30;3.00;;;;;;;;;;5093598;28;24485;-46
2022/07/24 07:58:17;;;;;;;3.55;3.25;;;;;;;;;;5105103;28;24928;-46
2022/07/24 08:00:42;;;;;;;4.20;3.90;;;;;;;;;;5100037;28;24436;-47
2022/07/24 08:03:07;;;;;;;4.07;3.77;;;;;;;;;;5084999;28;24434;-46
2022/07/24 08:05:32;;;;;;;3.70;3.50;;;;;;;;;;5094084;28;24433;-45
2022/07/24 08:07:57;;;;;;;4.03;3.73;;;;;;;;;;5105140;28;24386;-46
2022/07/24 08:10:22;;;;;;;4.20;3.90;;;;;;;;;;5095927;28;25103;-46
2022/07/24 08:12:47;;;;;;;3.90;3.60;;;;;;;;;;5084637;28;24432;-46
2022/07/24 08:15:13;;;;;;;3.30;3.10;;;;;;;;;;5087763;28;24524;-46
2022/07/24 08:17:38;;;;;;;2.70;2.50;;;;;;;;;;5104398;28;24441;-46
2022/07/24 08:20:03;;;;;;;3.20;3.00;;;;;;;;;;5102090;28;24494;-45
2022/07/24 08:22:28;;;;;;;3.20;3.00;;;;;;;;;;5098539;28;24944;-46
2022/07/24 08:24:54;;;;;;;3.30;3.00;;;;;;;;;;5090096;28;24445;-46
2022/07/24 08:27:19;;;;;;;3.40;3.20;;;;;;;;;;5105210;28;24551;-46
2022/07/24 08:29:44;;;;;;;2.77;2.57;;;;;;;;;;5091894;28;24452;-46
2022/07/24 08:32:09;;;;;;;2.72;2.53;;;;;;;;;;5086251;28;24398;-46
2022/07/24 08:34:34;;;;;;;3.50;3.00;;;;;;;;;;5091036;28;24444;-46
2022/07/24 08:36:59;;;;;;;3.07;2.87;;;;;;;;;;5084030;28;24402;-47
2022/07/24 08:39:25;;;;;;;2.90;2.70;;;;;;;;;;5092423;28;24493;-45
2022/07/24 08:41:50;;;;;;;3.80;3.50;;;;;;;;;;5106166;28;24397;-45
2022/07/24 08:44:15;;;;;;;3.47;3.17;;;;;;;;;;5106430;28;24386;-46
2022/07/24 08:46:41;;;;;;;3.27;3.07;;;;;;;;;;5099941;28;24434;-45
2022/07/24 08:49:09;;;;;;;3.47;2.97;;;;;;;;;;5086338;28;24624;-46
2022/07/24 08:51:36;;;;;;;3.00;2.80;;;;;;;;;;5105924;28;24970;-45
2022/07/24 08:54:02;;;;;;;3.00;2.80;;;;;;;;;;5105462;28;24429;-46
2022/07/24 08:56:27;;;;;;;3.17;2.80;;;;;;;;;;5104231;28;24950;-46
2022/07/24 08:58:53;;;;;;;2.78;2.58;;;;;;;;;;5106562;28;24428;-46
2022/07/24 09:01:18;;;;;;;2.70;2.60;;;;;;;;;;5093282;28;24425;-46
2022/07/24 09:03:44;;;;;;;3.00;2.80;;;;;;;;;;5086513;28;24541;-46
2022/07/24 09:06:12;;;;;;;3.00;2.80;;;;;;;;;;5087066;28;24968;-46
2022/07/24 09:08:38;;;;;;;3.58;3.30;;;;;;;;;;5089871;28;24826;-46
2022/07/24 09:11:04;;;;;;;3.22;3.00;;;;;;;;;;5089499;28;24426;-46
2022/07/24 09:14:29;;;;;;;3.78;3.47;;;;;;;;;;5105865;27;24776;-46
2022/07/24 09:16:19;;;;;;;2.80;2.60;;;;;;;;;;5109526;28;24802;-46
2022/07/24 09:18:44;;;;;;;3.10;2.80;;;;;;;;;;5106078;28;24508;-47
2022/07/24 09:21:13;;;;;;;3.40;3.10;;;;;;;;;;5090758;28;24518;-45
2022/07/24 09:23:39;;;;;;;2.87;2.67;;;;;;;;;;5089376;28;24512;-45
2022/07/24 09:26:04;;;;;;;3.20;3.00;;;;;;;;;;5088909;28;24960;-46
2022/07/24 09:28:45;;;;;;;3.40;3.10;;;;;;;;;;5089099;28;24433;-46
2022/07/24 09:31:10;;;;;;;2.50;2.40;;;;;;;;;;5089506;28;24444;-46
2022/07/24 09:33:35;;;;;;;3.20;2.90;;;;;;;;;;5104281;28;24402;-46
2022/07/24 09:36:10;;;;;;;2.83;2.63;;;;;;;;;;5091976;28;24418;-45
2022/07/24 09:38:35;;;;;;;2.88;2.67;;;;;;;;;;5093138;28;24428;-45
2022/07/24 09:41:00;;;;;;;3.00;2.63;;;;;;;;;;5089098;28;24521;-45
2022/07/24 09:43:27;;;;;;;3.30;3.10;;;;;;;;;;5095532;28;24468;-46
2022/07/24 09:46:00;;;;;;;2.70;2.50;;;;;;;;;;5109429;28;24449;-46
2022/07/24 09:48:26;;;;;;;2.70;2.50;;;;;;;;;;5105369;28;24494;-46
2022/07/24 09:50:53;;;;;;;3.20;2.90;;;;;;;;;;5090703;28;24433;-46
2022/07/24 09:53:19;;;;;;;2.80;2.60;;;;;;;;;;5088652;28;24438;-46
2022/07/24 09:55:44;;;;;;;3.50;3.20;;;;;;;;;;5088915;28;24417;-47
2022/07/24 09:58:28;;;;;;;2.80;2.60;;;;;;;;;;5088679;28;24537;-46
2022/07/24 10:00:54;;;;;;;3.20;3.00;;;;;;;;;;5092238;28;24418;-46
2022/07/24 10:03:23;;;;;;;2.80;2.60;;;;;;;;;;5088660;28;25042;-45
2022/07/24 10:05:52;;;;;;;2.72;2.53;;;;;;;;;;5088462;28;24503;-46
2022/07/24 10:08:18;;;;;;;2.90;2.70;;;;;;;;;;5089077;28;24521;-46
2022/07/24 10:10:44;;;;;;;3.17;2.90;;;;;;;;;;5092922;28;24591;-46
2022/07/24 10:13:10;;;;;;;3.08;2.88;;;;;;;;;;5107032;28;24444;-45
2022/07/24 10:15:40;;;;;;;3.20;2.90;;;;;;;;;;5088105;28;24975;-46
2022/07/24 10:18:14;;;;;;;3.67;3.38;;;;;;;;;;5088338;28;24410;-46
2022/07/24 10:20:40;;;;;;;3.50;3.20;;;;;;;;;;5091504;28;24426;-45
2022/07/24 10:23:06;;;;;;;3.05;2.75;;;;;;;;;;5101501;28;25105;-45
2022/07/24 10:25:41;;;;;;;3.30;3.00;;;;;;;;;;5092743;28;24450;-47
2022/07/24 10:28:07;;;;;;;3.10;2.80;;;;;;;;;;5087576;28;24865;-46
2022/07/24 10:30:33;;;;;;;3.15;2.95;;;;;;;;;;5107148;28;24417;-45
2022/07/24 10:32:58;;;;;;;3.10;2.90;;;;;;;;;;5094716;28;24535;-45
2022/07/24 10:35:25;;;;;;;3.10;2.90;;;;;;;;;;5104239;28;24951;-45
2022/07/24 10:37:57;;;;;;;4.30;3.40;;;;;;;;;;5106463;28;24969;-46
2022/07/24 10:40:41;;;;;;;3.10;2.90;;;;;;;;;;5107045;28;24416;-46
2022/07/24 10:43:08;;;;;;;3.40;3.20;;;;;;;;;;5102665;28;24466;-46
2022/07/24 10:45:34;;;;;;;3.30;3.00;;;;;;;;;;5099475;28;25053;-47
2022/07/24 10:48:18;;;;;;;3.60;3.30;;;;;;;;;;5089136;28;24446;-47
2022/07/24 10:51:07;;;;;;;3.40;3.13;;;;;;;;;;5088042;28;24538;-46
2022/07/24 10:53:35;;;;;;;3.20;2.90;;;;;;;;;;5087674;28;24399;-46
2022/07/24 10:56:13;;;;;;;3.10;2.90;;;;;;;;;;5087208;28;24868;-46
2022/07/24 10:58:52;;;;;;;3.25;3.05;;;;;;;;;;5089016;28;24424;-45
2022/07/24 11:01:27;;;;;;;3.58;3.28;;;;;;;;;;5088063;28;24430;-45
2022/07/24 11:03:52;;;;;;;3.20;3.00;;;;;;;;;;5087289;28;24391;-45
2022/07/24 11:06:17;;;;;;;2.78;2.67;;;;;;;;;;5088113;28;24982;-45
2022/07/24 11:08:45;;;;;;;4.43;3.10;;;;;;;;;;5099427;28;24494;-46
2022/07/24 11:11:13;;;;;;;3.15;2.85;;;;;;;;;;5107691;28;24425;-46
2022/07/24 11:13:41;;;;;;;2.92;2.80;;;;;;;;;;5107914;28;24402;-46
2022/07/24 11:16:15;;;;;;;2.90;2.70;;;;;;;;;;5100550;28;24452;-47
2022/07/24 11:18:40;;;;;;;3.20;3.00;;;;;;;;;;5087433;28;24441;-45
2022/07/24 11:21:05;;;;;;;3.40;3.20;;;;;;;;;;5088713;28;24427;-46
2022/07/24 11:23:31;;;;;;;3.60;3.30;;;;;;;;;;5107103;28;24962;-47
2022/07/24 11:26:15;;;;;;;3.20;3.00;;;;;;;;;;5107500;28;24422;-45
2022/07/24 11:28:40;;;;;;;3.20;3.00;;;;;;;;;;5107224;28;25152;-45
2022/07/24 11:31:05;;;;;;;3.58;3.38;;;;;;;;;;5104483;28;24978;-45
2022/07/24 11:33:30;;;;;;;3.33;3.13;;;;;;;;;;5107640;28;24417;-46
2022/07/24 11:35:55;;;;;;;3.43;3.23;;;;;;;;;;5104203;28;25042;-46
2022/07/24 11:38:27;;;;;;;3.35;3.05;;;;;;;;;;5087356;28;24430;-46
2022/07/24 11:41:03;;;;;;;2.97;2.78;;;;;;;;;;5087359;28;24404;-46
2022/07/24 11:43:28;;;;;;;3.60;3.10;;;;;;;;;;5090178;28;24421;-46
2022/07/24 11:45:54;;;;;;;4.30;3.10;;;;;;;;;;5106861;28;24856;-46
2022/07/24 11:48:19;;;;;;;3.20;3.00;;;;;;;;;;5107117;28;24394;-45
2022/07/24 11:50:44;;;;;;;3.20;3.00;;;;;;;;;;5105088;28;25137;-45
2022/07/24 11:53:10;;;;;;;3.50;3.20;;;;;;;;;;5087432;28;25036;-46
2022/07/24 11:55:35;;;;;;;3.50;3.20;;;;;;;;;;5087047;28;24967;-45
2022/07/24 11:58:01;;;;;;;3.47;3.27;;;;;;;;;;5098777;28;24500;-46
2022/07/24 12:00:27;;;;;;;3.10;2.90;;;;;;;;;;5102520;28;24713;-46
2022/07/24 12:02:54;;;;;;;2.90;2.70;;;;;;;;;;5107120;28;24480;-46
2022/07/24 12:05:27;;;;;;;3.70;3.25;;;;;;;;;;5105332;28;24386;-45
2022/07/24 12:07:52;;;;;;;3.30;3.10;;;;;;;;;;5094708;28;25046;-45
2022/07/24 12:10:22;;;;;;;3.40;3.20;;;;;;;;;;5088089;28;24532;-45
2022/07/24 12:12:48;;;;;;;3.10;2.90;;;;;;;;;;5097445;28;24749;-46
2022/07/24 12:15:13;;;;;;;3.50;3.20;;;;;;;;;;5106624;28;24500;-46
2022/07/24 12:17:56;;;;;;;3.20;3.00;;;;;;;;;;5106127;28;24477;-45
2022/07/24 12:20:22;;;;;;;3.33;3.13;;;;;;;;;;5102172;28;25011;-44
2022/07/24 12:22:48;;;;;;;3.00;2.80;;;;;;;;;;5104025;28;24429;-46
2022/07/24 12:25:14;;;;;;;3.40;3.20;;;;;;;;;;5106580;28;24516;-46
2022/07/24 12:27:43;;;;;;;3.80;3.50;;;;;;;;;;5104108;28;24425;-46
2022/07/24 12:30:27;;;;;;;4.30;3.40;;;;;;;;;;5106371;28;24546;-46
2022/07/24 12:32:52;;;;;;;3.20;3.00;;;;;;;;;;5089078;28;24422;-45
2022/07/24 12:35:18;;;;;;;3.28;2.97;;;;;;;;;;5086186;28;25065;-46
2022/07/24 12:37:43;;;;;;;3.20;3.00;;;;;;;;;;5087143;28;24956;-46
2022/07/24 12:40:08;;;;;;;3.50;3.15;;;;;;;;;;5093850;28;24418;-45
2022/07/24 12:42:33;;;;;;;3.40;3.20;;;;;;;;;;5103609;28;24426;-46
2022/07/24 12:45:08;;;;;;;3.20;3.00;;;;;;;;;;5099520;28;24444;-48
2022/07/24 12:47:34;;;;;;;3.30;3.10;;;;;;;;;;5107078;28;24413;-46
2022/07/24 12:50:10;;;;;;;3.30;3.10;;;;;;;;;;5102551;28;24433;-46
2022/07/24 12:52:38;;;;;;;3.40;3.20;;;;;;;;;;5088704;28;24425;-45
2022/07/24 12:55:03;;;;;;;3.50;3.20;;;;;;;;;;5100052;28;24993;-46
2022/07/24 12:57:28;;;;;;;3.27;3.00;;;;;;;;;;5108507;28;24401;-46
2022/07/24 12:59:59;;;;;;;3.30;3.00;;;;;;;;;;5106488;28;24426;-46
2022/07/24 13:02:25;;;;;;;3.33;3.03;;;;;;;;;;5108367;28;24432;-46
2022/07/24 13:04:51;;;;;;;3.23;3.03;;;;;;;;;;5104727;28;25030;-45
2022/07/24 13:07:18;;;;;;;3.30;3.10;;;;;;;;;;5091282;28;24521;-46
2022/07/24 13:09:43;;;;;;;3.60;3.30;;;;;;;;;;5088834;28;24430;-47
2022/07/24 13:12:08;;;;;;;3.20;3.00;;;;;;;;;;5087971;28;24402;-46
2022/07/24 13:14:34;;;;;;;3.10;2.90;;;;;;;;;;5090257;28;24481;-46
2022/07/24 13:17:03;;;;;;;3.20;2.90;;;;;;;;;;5089550;28;24409;-46
2022/07/24 13:19:28;;;;;;;3.20;3.00;;;;;;;;;;5093558;28;24437;-46
2022/07/24 13:21:54;;;;;;;3.50;3.30;;;;;;;;;;5098723;28;24423;-47
2022/07/24 13:24:19;;;;;;;3.00;2.80;;;;;;;;;;5088980;28;24990;-46
2022/07/24 13:26:44;;;;;;;3.40;3.20;;;;;;;;;;5098223;27;24466;-47
2022/07/24 13:29:11;;;;;;;3.10;2.90;;;;;;;;;;5098050;27;24483;-45
2022/07/24 13:31:36;;;;;;;3.53;3.22;;;;;;;;;;5093261;27;24417;-46
2022/07/24 13:34:01;;;;;;;3.10;2.90;;;;;;;;;;5104735;28;24439;-45
2022/07/24 13:36:26;;;;;;;3.20;2.97;;;;;;;;;;5103812;27;25034;-45
2022/07/24 13:38:52;;;;;;;3.50;3.30;;;;;;;;;;5094983;28;25022;-45
2022/07/24 13:41:18;;;;;;;3.80;3.40;;;;;;;;;;5100490;28;24514;-45
2022/07/24 13:43:44;;;;;;;3.70;3.40;;;;;;;;;;5102013;28;24425;-45
2022/07/24 13:46:09;;;;;;;3.70;3.40;;;;;;;;;;5090738;28;24486;-45
2022/07/24 13:48:34;;;;;;;3.20;3.00;;;;;;;;;;5090167;28;24481;-46
2022/07/24 13:50:59;;;;;;;3.70;3.40;;;;;;;;;;5095169;28;25065;-47
2022/07/24 13:53:24;;;;;;;3.90;3.50;;;;;;;;;;5085615;28;24471;-46
2022/07/24 13:55:50;;;;;;;3.42;3.22;;;;;;;;;;5104618;28;24440;-46
2022/07/24 13:58:15;;;;;;;3.20;3.00;;;;;;;;;;5098693;28;24972;-45
2022/07/24 14:00:41;;;;;;;3.30;3.10;;;;;;;;;;5102937;27;24508;-45
2022/07/24 14:03:06;;;;;;;3.30;3.00;;;;;;;;;;5098637;28;24529;-45
2022/07/24 14:05:31;;;;;;;3.53;3.33;;;;;;;;;;5105797;28;24448;-45
2022/07/24 14:07:56;;;;;;;3.60;3.40;;;;;;;;;;5096572;28;24496;-45
2022/07/24 14:10:22;;;;;;;3.50;3.20;;;;;;;;;;5092082;28;24478;-46
2022/07/24 14:12:47;;;;;;;3.17;2.97;;;;;;;;;;5088313;28;24493;-46
2022/07/24 14:15:13;;;;;;;3.17;2.97;;;;;;;;;;5103667;28;25021;-46
2022/07/24 14:17:39;;;;;;;3.03;2.90;;;;;;;;;;5097116;28;24429;-45
2022/07/24 14:20:05;;;;;;;3.28;3.08;;;;;;;;;;5104707;28;24452;-45
2022/07/24 14:22:30;;;;;;;3.42;3.17;;;;;;;;;;5088030;28;24483;-46
2022/07/24 14:24:55;;;;;;;3.50;3.30;;;;;;;;;;5105297;28;24498;-46
2022/07/24 14:27:20;;;;;;;3.58;3.38;;;;;;;;;;5097091;28;24702;-46
2022/07/24 14:29:45;;;;;;;3.60;3.40;;;;;;;;;;5104196;28;24784;-46